sensor_id;sensor_type;location;lat;lon;timestamp;P1;durP1;ratioP1;P2;durP2;ratioP2
45354;SDS011;31091;48.758;9.150;2023-05-20T00:01:39;5.53;;;3.05;;
45354;SDS011;31091;48.758;9.150;2023-05-20T00:04:24;5.05;;;3.00;;
45354;SDS011;31091;48.758;9.150;2023-05-20T00:07:09;5.10;;;2.72;;
45354;SDS011;31091;48.758;9.150;2023-05-20T00:09:55;6.78;;;3.22;;
45354;SDS011;31091;48.758;9.150;2023-05-20T00:12:40;6.93;;;3.33;;
45354;SDS011;31091;48.758;9.150;2023-05-20T00:15:25;5.45;;;2.72;;
45354;SDS011;31091;48.758;9.150;2023-05-20T00:18:10;5.03;;;2.78;;
45354;SDS011;31091;48.758;9.150;2023-05-20T00:20:56;4.15;;;2.40;;
45354;SDS011;31091;48.758;9.150;2023-05-20T00:23:41;5.75;;;2.83;;
45354;SDS011;31091;48.758;9.150;2023-05-20T00:26:27;5.25;;;3.03;;
45354;SDS011;31091;48.758;9.150;2023-05-20T00:29:12;5.80;;;2.55;;
45354;SDS011;31091;48.758;9.150;2023-05-20T00:31:58;6.10;;;2.72;;
45354;SDS011;31091;48.758;9.150;2023-05-20T00:34:43;6.22;;;2.92;;
45354;SDS011;31091;48.758;9.150;2023-05-20T00:37:28;7.57;;;2.88;;
45354;SDS011;31091;48.758;9.150;2023-05-20T00:40:13;4.90;;;2.83;;
45354;SDS011;31091;48.758;9.150;2023-05-20T00:42:59;5.88;;;2.75;;
45354;SDS011;31091;48.758;9.150;2023-05-20T00:45:45;4.40;;;2.78;;
45354;SDS011;31091;48.758;9.150;2023-05-20T00:48:32;7.35;;;2.95;;
45354;SDS011;31091;48.758;9.150;2023-05-20T00:51:20;6.10;;;2.63;;
45354;SDS011;31091;48.758;9.150;2023-05-20T00:54:05;5.70;;;2.97;;
45354;SDS011;31091;48.758;9.150;2023-05-20T00:56:51;6.00;;;2.78;;
45354;SDS011;31091;48.758;9.150;2023-05-20T00:59:36;7.68;;;3.00;;
45354;SDS011;31091;48.758;9.150;2023-05-20T01:02:22;6.47;;;3.85;;
45354;SDS011;31091;48.758;9.150;2023-05-20T01:05:07;5.03;;;3.22;;
45354;SDS011;31091;48.758;9.150;2023-05-20T01:07:53;6.90;;;2.83;;
45354;SDS011;31091;48.758;9.150;2023-05-20T01:10:40;4.10;;;2.90;;
45354;SDS011;31091;48.758;9.150;2023-05-20T01:13:27;7.07;;;3.42;;
45354;SDS011;31091;48.758;9.150;2023-05-20T01:16:13;5.50;;;2.60;;
45354;SDS011;31091;48.758;9.150;2023-05-20T01:19:02;4.65;;;2.83;;
45354;SDS011;31091;48.758;9.150;2023-05-20T01:21:50;4.23;;;2.67;;
45354;SDS011;31091;48.758;9.150;2023-05-20T01:24:40;4.40;;;2.63;;
45354;SDS011;31091;48.758;9.150;2023-05-20T01:27:26;9.13;;;3.38;;
45354;SDS011;31091;48.758;9.150;2023-05-20T01:30:14;6.75;;;3.00;;
45354;SDS011;31091;48.758;9.150;2023-05-20T01:33:00;4.85;;;2.83;;
45354;SDS011;31091;48.758;9.150;2023-05-20T01:35:46;5.18;;;3.17;;
45354;SDS011;31091;48.758;9.150;2023-05-20T01:38:32;7.63;;;2.85;;
45354;SDS011;31091;48.758;9.150;2023-05-20T01:41:18;4.95;;;2.70;;
45354;SDS011;31091;48.758;9.150;2023-05-20T01:44:03;5.13;;;2.53;;
45354;SDS011;31091;48.758;9.150;2023-05-20T01:46:49;11.05;;;3.55;;
45354;SDS011;31091;48.758;9.150;2023-05-20T01:49:34;7.18;;;3.40;;
45354;SDS011;31091;48.758;9.150;2023-05-20T01:52:20;6.50;;;3.85;;
45354;SDS011;31091;48.758;9.150;2023-05-20T01:55:06;4.47;;;2.85;;
45354;SDS011;31091;48.758;9.150;2023-05-20T01:57:51;5.72;;;2.95;;
45354;SDS011;31091;48.758;9.150;2023-05-20T02:00:36;8.48;;;3.30;;
45354;SDS011;31091;48.758;9.150;2023-05-20T02:03:22;8.77;;;3.45;;
45354;SDS011;31091;48.758;9.150;2023-05-20T02:06:07;6.90;;;3.17;;
45354;SDS011;31091;48.758;9.150;2023-05-20T02:08:52;5.05;;;3.00;;
45354;SDS011;31091;48.758;9.150;2023-05-20T02:11:37;5.25;;;3.00;;
45354;SDS011;31091;48.758;9.150;2023-05-20T02:14:23;6.55;;;2.90;;
45354;SDS011;31091;48.758;9.150;2023-05-20T02:17:08;6.38;;;2.83;;
45354;SDS011;31091;48.758;9.150;2023-05-20T02:19:53;5.72;;;3.63;;
45354;SDS011;31091;48.758;9.150;2023-05-20T02:22:38;4.40;;;2.63;;
45354;SDS011;31091;48.758;9.150;2023-05-20T02:25:24;7.10;;;3.22;;
45354;SDS011;31091;48.758;9.150;2023-05-20T02:28:09;6.40;;;3.90;;
45354;SDS011;31091;48.758;9.150;2023-05-20T02:30:57;6.60;;;3.40;;
45354;SDS011;31091;48.758;9.150;2023-05-20T02:33:42;6.97;;;3.00;;
45354;SDS011;31091;48.758;9.150;2023-05-20T02:36:28;9.25;;;3.15;;
45354;SDS011;31091;48.758;9.150;2023-05-20T02:39:13;6.55;;;3.65;;
45354;SDS011;31091;48.758;9.150;2023-05-20T02:41:58;8.73;;;3.90;;
45354;SDS011;31091;48.758;9.150;2023-05-20T02:44:43;4.97;;;3.20;;
45354;SDS011;31091;48.758;9.150;2023-05-20T02:47:28;5.30;;;2.92;;
45354;SDS011;31091;48.758;9.150;2023-05-20T02:50:14;7.55;;;3.08;;
45354;SDS011;31091;48.758;9.150;2023-05-20T02:52:59;5.32;;;3.30;;
45354;SDS011;31091;48.758;9.150;2023-05-20T02:55:44;4.85;;;3.28;;
45354;SDS011;31091;48.758;9.150;2023-05-20T02:58:31;5.32;;;2.60;;
45354;SDS011;31091;48.758;9.150;2023-05-20T03:01:17;5.35;;;3.05;;
45354;SDS011;31091;48.758;9.150;2023-05-20T03:04:02;6.38;;;3.28;;
45354;SDS011;31091;48.758;9.150;2023-05-20T03:06:47;7.20;;;3.88;;
45354;SDS011;31091;48.758;9.150;2023-05-20T03:09:32;6.90;;;3.58;;
45354;SDS011;31091;48.758;9.150;2023-05-20T03:12:18;4.45;;;2.80;;
45354;SDS011;31091;48.758;9.150;2023-05-20T03:15:03;5.70;;;3.00;;
45354;SDS011;31091;48.758;9.150;2023-05-20T03:17:48;6.20;;;3.60;;
45354;SDS011;31091;48.758;9.150;2023-05-20T03:20:34;5.97;;;2.97;;
45354;SDS011;31091;48.758;9.150;2023-05-20T03:23:22;6.57;;;3.30;;
45354;SDS011;31091;48.758;9.150;2023-05-20T03:26:07;5.55;;;3.28;;
45354;SDS011;31091;48.758;9.150;2023-05-20T03:28:52;9.18;;;3.25;;
45354;SDS011;31091;48.758;9.150;2023-05-20T03:31:37;4.85;;;3.05;;
45354;SDS011;31091;48.758;9.150;2023-05-20T03:34:23;4.78;;;3.20;;
45354;SDS011;31091;48.758;9.150;2023-05-20T03:37:08;4.40;;;2.83;;
45354;SDS011;31091;48.758;9.150;2023-05-20T03:39:53;5.18;;;3.35;;
45354;SDS011;31091;48.758;9.150;2023-05-20T03:42:38;6.13;;;3.58;;
45354;SDS011;31091;48.758;9.150;2023-05-20T03:45:24;5.05;;;3.22;;
45354;SDS011;31091;48.758;9.150;2023-05-20T03:48:09;6.32;;;3.60;;
45354;SDS011;31091;48.758;9.150;2023-05-20T03:50:54;5.50;;;2.88;;
45354;SDS011;31091;48.758;9.150;2023-05-20T03:53:39;5.78;;;2.97;;
45354;SDS011;31091;48.758;9.150;2023-05-20T03:56:25;5.13;;;2.90;;
45354;SDS011;31091;48.758;9.150;2023-05-20T03:59:10;5.65;;;3.33;;
45354;SDS011;31091;48.758;9.150;2023-05-20T04:01:55;5.97;;;3.20;;
45354;SDS011;31091;48.758;9.150;2023-05-20T04:04:41;5.32;;;3.53;;
45354;SDS011;31091;48.758;9.150;2023-05-20T04:07:29;5.78;;;3.00;;
45354;SDS011;31091;48.758;9.150;2023-05-20T04:10:14;7.50;;;3.10;;
45354;SDS011;31091;48.758;9.150;2023-05-20T04:13:00;5.72;;;2.88;;
45354;SDS011;31091;48.758;9.150;2023-05-20T04:15:46;5.32;;;3.05;;
45354;SDS011;31091;48.758;9.150;2023-05-20T04:18:31;5.55;;;3.22;;
45354;SDS011;31091;48.758;9.150;2023-05-20T04:21:16;5.45;;;3.05;;
45354;SDS011;31091;48.758;9.150;2023-05-20T04:24:02;6.22;;;3.35;;
45354;SDS011;31091;48.758;9.150;2023-05-20T04:26:48;4.50;;;2.80;;
45354;SDS011;31091;48.758;9.150;2023-05-20T04:29:34;6.43;;;3.28;;
45354;SDS011;31091;48.758;9.150;2023-05-20T04:32:19;6.65;;;3.45;;
45354;SDS011;31091;48.758;9.150;2023-05-20T04:35:04;9.80;;;2.92;;
45354;SDS011;31091;48.758;9.150;2023-05-20T04:37:55;5.60;;;3.53;;
45354;SDS011;31091;48.758;9.150;2023-05-20T04:40:40;5.95;;;3.30;;
45354;SDS011;31091;48.758;9.150;2023-05-20T04:43:26;5.88;;;3.33;;
45354;SDS011;31091;48.758;9.150;2023-05-20T04:46:14;6.03;;;3.25;;
45354;SDS011;31091;48.758;9.150;2023-05-20T04:49:00;5.22;;;3.08;;
45354;SDS011;31091;48.758;9.150;2023-05-20T04:51:45;6.90;;;3.28;;
45354;SDS011;31091;48.758;9.150;2023-05-20T04:54:31;6.53;;;3.50;;
45354;SDS011;31091;48.758;9.150;2023-05-20T04:57:16;7.90;;;3.13;;
45354;SDS011;31091;48.758;9.150;2023-05-20T05:00:05;6.95;;;3.13;;
45354;SDS011;31091;48.758;9.150;2023-05-20T05:02:51;5.00;;;3.10;;
45354;SDS011;31091;48.758;9.150;2023-05-20T05:05:40;5.30;;;3.28;;
45354;SDS011;31091;48.758;9.150;2023-05-20T05:08:26;5.88;;;3.03;;
45354;SDS011;31091;48.758;9.150;2023-05-20T05:11:11;5.55;;;3.10;;
45354;SDS011;31091;48.758;9.150;2023-05-20T05:13:56;6.45;;;3.45;;
45354;SDS011;31091;48.758;9.150;2023-05-20T05:16:41;5.63;;;3.30;;
45354;SDS011;31091;48.758;9.150;2023-05-20T05:19:27;6.05;;;3.28;;
45354;SDS011;31091;48.758;9.150;2023-05-20T05:22:12;6.00;;;3.65;;
45354;SDS011;31091;48.758;9.150;2023-05-20T05:24:57;6.75;;;3.83;;
45354;SDS011;31091;48.758;9.150;2023-05-20T05:27:42;8.27;;;3.97;;
45354;SDS011;31091;48.758;9.150;2023-05-20T05:30:28;5.70;;;3.45;;
45354;SDS011;31091;48.758;9.150;2023-05-20T05:33:14;6.20;;;4.43;;
45354;SDS011;31091;48.758;9.150;2023-05-20T05:35:59;6.60;;;3.67;;
45354;SDS011;31091;48.758;9.150;2023-05-20T05:38:45;6.70;;;4.20;;
45354;SDS011;31091;48.758;9.150;2023-05-20T05:41:31;6.45;;;4.25;;
45354;SDS011;31091;48.758;9.150;2023-05-20T05:44:16;5.95;;;3.75;;
45354;SDS011;31091;48.758;9.150;2023-05-20T05:47:01;6.82;;;4.32;;
45354;SDS011;31091;48.758;9.150;2023-05-20T05:49:47;6.72;;;4.57;;
45354;SDS011;31091;48.758;9.150;2023-05-20T05:52:32;8.95;;;4.15;;
45354;SDS011;31091;48.758;9.150;2023-05-20T05:55:17;6.82;;;4.40;;
45354;SDS011;31091;48.758;9.150;2023-05-20T05:58:03;6.45;;;4.10;;
45354;SDS011;31091;48.758;9.150;2023-05-20T06:00:51;7.32;;;4.20;;
45354;SDS011;31091;48.758;9.150;2023-05-20T06:03:37;7.80;;;4.40;;
45354;SDS011;31091;48.758;9.150;2023-05-20T06:06:22;7.53;;;3.70;;
45354;SDS011;31091;48.758;9.150;2023-05-20T06:09:07;8.23;;;4.03;;
45354;SDS011;31091;48.758;9.150;2023-05-20T06:11:53;6.93;;;3.95;;
45354;SDS011;31091;48.758;9.150;2023-05-20T06:14:38;8.90;;;3.85;;
45354;SDS011;31091;48.758;9.150;2023-05-20T06:17:23;8.40;;;4.75;;
45354;SDS011;31091;48.758;9.150;2023-05-20T06:20:08;7.38;;;3.80;;
45354;SDS011;31091;48.758;9.150;2023-05-20T06:22:54;6.85;;;3.90;;
45354;SDS011;31091;48.758;9.150;2023-05-20T06:25:39;7.70;;;4.45;;
45354;SDS011;31091;48.758;9.150;2023-05-20T06:28:27;7.80;;;3.92;;
45354;SDS011;31091;48.758;9.150;2023-05-20T06:31:12;6.50;;;4.18;;
45354;SDS011;31091;48.758;9.150;2023-05-20T06:33:58;6.80;;;4.43;;
45354;SDS011;31091;48.758;9.150;2023-05-20T06:36:43;9.73;;;5.00;;
45354;SDS011;31091;48.758;9.150;2023-05-20T06:39:28;13.35;;;4.93;;
45354;SDS011;31091;48.758;9.150;2023-05-20T06:42:13;8.18;;;4.03;;
45354;SDS011;31091;48.758;9.150;2023-05-20T06:44:58;8.50;;;4.22;;
45354;SDS011;31091;48.758;9.150;2023-05-20T06:47:44;8.70;;;4.63;;
45354;SDS011;31091;48.758;9.150;2023-05-20T06:50:29;8.13;;;4.75;;
45354;SDS011;31091;48.758;9.150;2023-05-20T06:53:14;9.25;;;5.40;;
45354;SDS011;31091;48.758;9.150;2023-05-20T06:56:00;8.88;;;4.22;;
45354;SDS011;31091;48.758;9.150;2023-05-20T06:58:46;6.85;;;4.82;;
45354;SDS011;31091;48.758;9.150;2023-05-20T07:01:31;6.00;;;4.10;;
45354;SDS011;31091;48.758;9.150;2023-05-20T07:04:16;8.35;;;5.15;;
45354;SDS011;31091;48.758;9.150;2023-05-20T07:07:01;8.60;;;4.45;;
45354;SDS011;31091;48.758;9.150;2023-05-20T07:09:47;8.13;;;4.88;;
45354;SDS011;31091;48.758;9.150;2023-05-20T07:12:32;7.38;;;4.60;;
45354;SDS011;31091;48.758;9.150;2023-05-20T07:15:17;9.70;;;5.05;;
45354;SDS011;31091;48.758;9.150;2023-05-20T07:18:02;5.97;;;4.03;;
45354;SDS011;31091;48.758;9.150;2023-05-20T07:20:48;7.65;;;4.78;;
45354;SDS011;31091;48.758;9.150;2023-05-20T07:23:33;8.20;;;4.70;;
45354;SDS011;31091;48.758;9.150;2023-05-20T07:26:18;6.50;;;4.35;;
45354;SDS011;31091;48.758;9.150;2023-05-20T07:29:03;6.45;;;4.30;;
45354;SDS011;31091;48.758;9.150;2023-05-20T07:31:49;6.60;;;4.55;;
45354;SDS011;31091;48.758;9.150;2023-05-20T07:34:34;10.18;;;5.25;;
45354;SDS011;31091;48.758;9.150;2023-05-20T07:37:20;6.57;;;4.47;;
45354;SDS011;31091;48.758;9.150;2023-05-20T07:40:05;7.60;;;4.82;;
45354;SDS011;31091;48.758;9.150;2023-05-20T07:42:51;6.18;;;4.32;;
45354;SDS011;31091;48.758;9.150;2023-05-20T07:45:36;7.57;;;4.63;;
45354;SDS011;31091;48.758;9.150;2023-05-20T07:48:22;6.78;;;4.68;;
45354;SDS011;31091;48.758;9.150;2023-05-20T07:51:07;6.82;;;4.80;;
45354;SDS011;31091;48.758;9.150;2023-05-20T07:53:52;8.75;;;5.00;;
45354;SDS011;31091;48.758;9.150;2023-05-20T07:56:37;5.90;;;4.20;;
45354;SDS011;31091;48.758;9.150;2023-05-20T07:59:22;6.43;;;4.00;;
45354;SDS011;31091;48.758;9.150;2023-05-20T08:02:08;6.47;;;4.18;;
45354;SDS011;31091;48.758;9.150;2023-05-20T08:04:53;6.80;;;4.50;;
45354;SDS011;31091;48.758;9.150;2023-05-20T08:07:38;6.38;;;4.20;;
45354;SDS011;31091;48.758;9.150;2023-05-20T08:10:23;6.50;;;4.53;;
45354;SDS011;31091;48.758;9.150;2023-05-20T08:13:09;8.45;;;4.60;;
45354;SDS011;31091;48.758;9.150;2023-05-20T08:15:54;6.80;;;4.35;;
45354;SDS011;31091;48.758;9.150;2023-05-20T08:18:39;7.18;;;4.30;;
45354;SDS011;31091;48.758;9.150;2023-05-20T08:21:25;7.85;;;4.60;;
45354;SDS011;31091;48.758;9.150;2023-05-20T08:24:10;7.55;;;4.82;;
45354;SDS011;31091;48.758;9.150;2023-05-20T08:26:55;5.55;;;3.80;;
45354;SDS011;31091;48.758;9.150;2023-05-20T08:29:41;5.68;;;4.25;;
45354;SDS011;31091;48.758;9.150;2023-05-20T08:32:26;7.72;;;4.43;;
45354;SDS011;31091;48.758;9.150;2023-05-20T08:35:11;6.65;;;3.88;;
45354;SDS011;31091;48.758;9.150;2023-05-20T08:37:56;8.07;;;4.47;;
45354;SDS011;31091;48.758;9.150;2023-05-20T08:40:42;6.85;;;4.18;;
45354;SDS011;31091;48.758;9.150;2023-05-20T08:43:27;6.75;;;4.53;;
45354;SDS011;31091;48.758;9.150;2023-05-20T08:46:14;6.30;;;4.18;;
45354;SDS011;31091;48.758;9.150;2023-05-20T08:48:59;6.85;;;4.60;;
45354;SDS011;31091;48.758;9.150;2023-05-20T08:51:45;7.60;;;4.60;;
45354;SDS011;31091;48.758;9.150;2023-05-20T08:54:52;6.03;;;4.00;;
45354;SDS011;31091;48.758;9.150;2023-05-20T08:57:36;8.38;;;4.43;;
45354;SDS011;31091;48.758;9.150;2023-05-20T09:00:22;7.72;;;5.05;;
45354;SDS011;31091;48.758;9.150;2023-05-20T09:03:11;8.07;;;5.13;;
45354;SDS011;31091;48.758;9.150;2023-05-20T09:06:06;8.43;;;4.78;;
45354;SDS011;31091;48.758;9.150;2023-05-20T09:08:52;6.28;;;4.20;;
45354;SDS011;31091;48.758;9.150;2023-05-20T09:11:38;7.47;;;4.55;;
45354;SDS011;31091;48.758;9.150;2023-05-20T09:14:23;7.07;;;4.70;;
45354;SDS011;31091;48.758;9.150;2023-05-20T09:17:11;7.18;;;4.47;;
45354;SDS011;31091;48.758;9.150;2023-05-20T09:19:56;6.20;;;4.35;;
45354;SDS011;31091;48.758;9.150;2023-05-20T09:22:42;7.20;;;4.43;;
45354;SDS011;31091;48.758;9.150;2023-05-20T09:25:27;7.90;;;5.15;;
45354;SDS011;31091;48.758;9.150;2023-05-20T09:28:13;5.22;;;4.07;;
45354;SDS011;31091;48.758;9.150;2023-05-20T09:30:58;8.77;;;4.93;;
45354;SDS011;31091;48.758;9.150;2023-05-20T09:33:44;6.38;;;3.83;;
45354;SDS011;31091;48.758;9.150;2023-05-20T09:36:29;5.15;;;4.03;;
45354;SDS011;31091;48.758;9.150;2023-05-20T09:39:18;10.20;;;4.65;;
45354;SDS011;31091;48.758;9.150;2023-05-20T09:45:01;10.90;;;5.03;;
45354;SDS011;31091;48.758;9.150;2023-05-20T09:47:49;7.63;;;4.72;;
45354;SDS011;31091;48.758;9.150;2023-05-20T09:50:34;7.75;;;4.43;;
45354;SDS011;31091;48.758;9.150;2023-05-20T09:53:20;5.90;;;4.63;;
45354;SDS011;31091;48.758;9.150;2023-05-20T09:56:07;9.52;;;4.78;;
45354;SDS011;31091;48.758;9.150;2023-05-20T09:58:52;7.47;;;5.00;;
45354;SDS011;31091;48.758;9.150;2023-05-20T10:01:43;6.93;;;4.93;;
45354;SDS011;31091;48.758;9.150;2023-05-20T10:04:28;7.60;;;4.57;;
45354;SDS011;31091;48.758;9.150;2023-05-20T10:19:12;7.13;;;5.18;;
45354;SDS011;31091;48.758;9.150;2023-05-20T10:22:03;16.80;;;9.20;;
45354;SDS011;31091;48.758;9.150;2023-05-20T10:24:48;7.55;;;4.38;;
45354;SDS011;31091;48.758;9.150;2023-05-20T10:27:45;5.53;;;4.07;;
45354;SDS011;31091;48.758;9.150;2023-05-20T10:30:30;7.35;;;4.72;;
45354;SDS011;31091;48.758;9.150;2023-05-20T10:33:16;7.22;;;3.70;;
45354;SDS011;31091;48.758;9.150;2023-05-20T10:36:02;7.50;;;4.20;;
45354;SDS011;31091;48.758;9.150;2023-05-20T10:38:54;6.55;;;3.92;;
45354;SDS011;31091;48.758;9.150;2023-05-20T10:41:39;7.72;;;3.83;;
45354;SDS011;31091;48.758;9.150;2023-05-20T10:44:25;7.72;;;4.10;;
45354;SDS011;31091;48.758;9.150;2023-05-20T10:47:10;7.82;;;4.25;;
45354;SDS011;31091;48.758;9.150;2023-05-20T10:49:56;5.85;;;4.07;;
45354;SDS011;31091;48.758;9.150;2023-05-20T10:52:42;5.60;;;4.32;;
45354;SDS011;31091;48.758;9.150;2023-05-20T10:55:33;5.85;;;3.90;;
45354;SDS011;31091;48.758;9.150;2023-05-20T10:58:22;8.00;;;4.18;;
45354;SDS011;31091;48.758;9.150;2023-05-20T11:01:08;5.68;;;3.97;;
45354;SDS011;31091;48.758;9.150;2023-05-20T11:03:54;7.63;;;4.05;;
45354;SDS011;31091;48.758;9.150;2023-05-20T11:06:48;7.78;;;4.50;;
45354;SDS011;31091;48.758;9.150;2023-05-20T11:09:33;7.13;;;4.60;;
45354;SDS011;31091;48.758;9.150;2023-05-20T11:12:19;6.15;;;4.40;;
45354;SDS011;31091;48.758;9.150;2023-05-20T11:15:05;7.35;;;4.53;;
45354;SDS011;31091;48.758;9.150;2023-05-20T11:17:54;6.85;;;4.00;;
45354;SDS011;31091;48.758;9.150;2023-05-20T11:20:39;7.43;;;4.72;;
45354;SDS011;31091;48.758;9.150;2023-05-20T11:23:25;7.60;;;4.60;;
45354;SDS011;31091;48.758;9.150;2023-05-20T11:26:11;7.07;;;4.55;;
45354;SDS011;31091;48.758;9.150;2023-05-20T11:28:57;6.53;;;4.13;;
45354;SDS011;31091;48.758;9.150;2023-05-20T11:31:42;7.18;;;4.60;;
45354;SDS011;31091;48.758;9.150;2023-05-20T11:34:34;7.05;;;4.40;;
45354;SDS011;31091;48.758;9.150;2023-05-20T11:37:20;7.05;;;4.57;;
45354;SDS011;31091;48.758;9.150;2023-05-20T11:40:06;10.55;;;4.47;;
45354;SDS011;31091;48.758;9.150;2023-05-20T11:42:52;6.93;;;4.05;;
45354;SDS011;31091;48.758;9.150;2023-05-20T11:45:41;6.28;;;4.45;;
45354;SDS011;31091;48.758;9.150;2023-05-20T11:48:27;7.47;;;3.75;;
45354;SDS011;31091;48.758;9.150;2023-05-20T11:51:12;8.05;;;4.38;;
45354;SDS011;31091;48.758;9.150;2023-05-20T11:54:01;6.75;;;4.00;;
45354;SDS011;31091;48.758;9.150;2023-05-20T11:56:46;5.40;;;4.00;;
45354;SDS011;31091;48.758;9.150;2023-05-20T11:59:31;6.82;;;4.70;;
45354;SDS011;31091;48.758;9.150;2023-05-20T12:02:17;6.55;;;4.10;;
45354;SDS011;31091;48.758;9.150;2023-05-20T12:05:02;4.65;;;3.75;;
45354;SDS011;31091;48.758;9.150;2023-05-20T12:07:48;15.90;;;3.97;;
45354;SDS011;31091;48.758;9.150;2023-05-20T12:10:33;6.47;;;4.03;;
45354;SDS011;31091;48.758;9.150;2023-05-20T12:13:18;7.22;;;3.90;;
45354;SDS011;31091;48.758;9.150;2023-05-20T12:16:04;12.48;;;4.15;;
45354;SDS011;31091;48.758;9.150;2023-05-20T12:18:49;6.00;;;4.13;;
45354;SDS011;31091;48.758;9.150;2023-05-20T12:21:35;5.57;;;4.25;;
45354;SDS011;31091;48.758;9.150;2023-05-20T12:24:20;5.68;;;3.78;;
45354;SDS011;31091;48.758;9.150;2023-05-20T12:27:05;5.75;;;4.10;;
45354;SDS011;31091;48.758;9.150;2023-05-20T12:29:51;5.68;;;3.85;;
45354;SDS011;31091;48.758;9.150;2023-05-20T12:32:37;5.75;;;3.85;;
45354;SDS011;31091;48.758;9.150;2023-05-20T12:35:35;5.68;;;4.03;;
45354;SDS011;31091;48.758;9.150;2023-05-20T12:38:20;6.78;;;3.97;;
45354;SDS011;31091;48.758;9.150;2023-05-20T12:41:05;6.55;;;3.95;;
45354;SDS011;31091;48.758;9.150;2023-05-20T12:43:51;6.15;;;4.22;;
45354;SDS011;31091;48.758;9.150;2023-05-20T12:46:36;8.65;;;4.72;;
45354;SDS011;31091;48.758;9.150;2023-05-20T12:49:21;9.43;;;4.03;;
45354;SDS011;31091;48.758;9.150;2023-05-20T12:52:06;5.65;;;4.20;;
45354;SDS011;31091;48.758;9.150;2023-05-20T12:54:52;8.02;;;4.22;;
45354;SDS011;31091;48.758;9.150;2023-05-20T12:57:38;7.05;;;4.15;;
45354;SDS011;31091;48.758;9.150;2023-05-20T13:00:24;7.70;;;3.63;;
45354;SDS011;31091;48.758;9.150;2023-05-20T13:03:09;8.00;;;4.15;;
45354;SDS011;31091;48.758;9.150;2023-05-20T13:05:55;4.80;;;3.72;;
45354;SDS011;31091;48.758;9.150;2023-05-20T13:08:40;6.25;;;4.05;;
45354;SDS011;31091;48.758;9.150;2023-05-20T13:11:25;6.20;;;4.20;;
45354;SDS011;31091;48.758;9.150;2023-05-20T13:14:11;4.93;;;3.50;;
45354;SDS011;31091;48.758;9.150;2023-05-20T13:16:56;5.32;;;3.90;;
45354;SDS011;31091;48.758;9.150;2023-05-20T13:19:41;7.45;;;3.83;;
45354;SDS011;31091;48.758;9.150;2023-05-20T13:22:26;6.60;;;3.35;;
45354;SDS011;31091;48.758;9.150;2023-05-20T13:25:12;5.13;;;3.35;;
45354;SDS011;31091;48.758;9.150;2023-05-20T13:27:57;6.72;;;3.53;;
45354;SDS011;31091;48.758;9.150;2023-05-20T13:30:42;5.95;;;3.20;;
45354;SDS011;31091;48.758;9.150;2023-05-20T13:33:27;5.53;;;4.05;;
45354;SDS011;31091;48.758;9.150;2023-05-20T13:36:13;5.65;;;3.53;;
45354;SDS011;31091;48.758;9.150;2023-05-20T13:38:58;7.00;;;3.50;;
45354;SDS011;31091;48.758;9.150;2023-05-20T13:41:43;4.43;;;3.30;;
45354;SDS011;31091;48.758;9.150;2023-05-20T13:44:28;4.95;;;3.30;;
45354;SDS011;31091;48.758;9.150;2023-05-20T13:47:14;5.70;;;3.50;;
45354;SDS011;31091;48.758;9.150;2023-05-20T13:49:59;6.10;;;3.80;;
45354;SDS011;31091;48.758;9.150;2023-05-20T13:52:44;6.78;;;3.60;;
45354;SDS011;31091;48.758;9.150;2023-05-20T13:55:30;5.25;;;3.08;;
45354;SDS011;31091;48.758;9.150;2023-05-20T13:58:15;6.30;;;3.15;;
45354;SDS011;31091;48.758;9.150;2023-05-20T14:01:01;6.28;;;3.25;;
45354;SDS011;31091;48.758;9.150;2023-05-20T14:03:47;7.47;;;3.78;;
45354;SDS011;31091;48.758;9.150;2023-05-20T14:06:32;5.15;;;3.65;;
45354;SDS011;31091;48.758;9.150;2023-05-20T14:09:18;6.97;;;3.60;;
45354;SDS011;31091;48.758;9.150;2023-05-20T14:12:03;5.00;;;3.53;;
45354;SDS011;31091;48.758;9.150;2023-05-20T14:14:49;5.35;;;3.72;;
45354;SDS011;31091;48.758;9.150;2023-05-20T14:17:34;4.65;;;3.20;;
45354;SDS011;31091;48.758;9.150;2023-05-20T14:20:20;4.78;;;3.30;;
45354;SDS011;31091;48.758;9.150;2023-05-20T14:23:05;5.25;;;3.33;;
45354;SDS011;31091;48.758;9.150;2023-05-20T14:25:50;6.30;;;3.50;;
45354;SDS011;31091;48.758;9.150;2023-05-20T14:28:36;4.95;;;3.33;;
45354;SDS011;31091;48.758;9.150;2023-05-20T14:31:21;6.82;;;4.07;;
45354;SDS011;31091;48.758;9.150;2023-05-20T14:34:06;6.35;;;3.50;;
45354;SDS011;31091;48.758;9.150;2023-05-20T14:36:51;4.88;;;3.50;;
45354;SDS011;31091;48.758;9.150;2023-05-20T14:39:37;7.88;;;3.22;;
45354;SDS011;31091;48.758;9.150;2023-05-20T14:42:22;5.35;;;3.28;;
45354;SDS011;31091;48.758;9.150;2023-05-20T14:45:08;4.78;;;3.38;;
45354;SDS011;31091;48.758;9.150;2023-05-20T14:47:53;4.65;;;3.10;;
45354;SDS011;31091;48.758;9.150;2023-05-20T14:50:39;4.82;;;3.45;;
45354;SDS011;31091;48.758;9.150;2023-05-20T14:53:24;5.07;;;3.08;;
45354;SDS011;31091;48.758;9.150;2023-05-20T14:56:09;6.35;;;4.05;;
45354;SDS011;31091;48.758;9.150;2023-05-20T14:58:55;6.25;;;3.53;;
45354;SDS011;31091;48.758;9.150;2023-05-20T15:01:41;5.70;;;3.38;;
45354;SDS011;31091;48.758;9.150;2023-05-20T15:04:26;6.70;;;3.33;;
45354;SDS011;31091;48.758;9.150;2023-05-20T15:07:11;5.82;;;3.63;;
45354;SDS011;31091;48.758;9.150;2023-05-20T15:09:56;5.55;;;3.40;;
45354;SDS011;31091;48.758;9.150;2023-05-20T15:12:41;3.72;;;2.90;;
45354;SDS011;31091;48.758;9.150;2023-05-20T15:15:27;5.03;;;3.58;;
45354;SDS011;31091;48.758;9.150;2023-05-20T15:18:12;5.65;;;3.05;;
45354;SDS011;31091;48.758;9.150;2023-05-20T15:20:57;7.13;;;3.20;;
45354;SDS011;31091;48.758;9.150;2023-05-20T15:23:44;5.75;;;3.08;;
45354;SDS011;31091;48.758;9.150;2023-05-20T15:26:30;6.18;;;3.25;;
45354;SDS011;31091;48.758;9.150;2023-05-20T15:29:16;5.63;;;3.58;;
45354;SDS011;31091;48.758;9.150;2023-05-20T15:32:01;5.25;;;3.60;;
45354;SDS011;31091;48.758;9.150;2023-05-20T15:34:46;4.72;;;2.78;;
45354;SDS011;31091;48.758;9.150;2023-05-20T15:37:32;7.10;;;3.45;;
45354;SDS011;31091;48.758;9.150;2023-05-20T15:40:17;4.57;;;3.20;;
45354;SDS011;31091;48.758;9.150;2023-05-20T15:43:02;6.05;;;3.60;;
45354;SDS011;31091;48.758;9.150;2023-05-20T15:45:48;4.95;;;3.80;;
45354;SDS011;31091;48.758;9.150;2023-05-20T15:48:34;7.40;;;4.03;;
45354;SDS011;31091;48.758;9.150;2023-05-20T15:51:21;5.32;;;3.28;;
45354;SDS011;31091;48.758;9.150;2023-05-20T15:54:07;8.00;;;3.55;;
45354;SDS011;31091;48.758;9.150;2023-05-20T15:56:52;5.82;;;3.75;;
45354;SDS011;31091;48.758;9.150;2023-05-20T15:59:37;4.57;;;3.20;;
45354;SDS011;31091;48.758;9.150;2023-05-20T16:02:23;5.72;;;3.53;;
45354;SDS011;31091;48.758;9.150;2023-05-20T16:05:08;6.75;;;3.50;;
45354;SDS011;31091;48.758;9.150;2023-05-20T16:07:53;8.05;;;4.65;;
45354;SDS011;31091;48.758;9.150;2023-05-20T16:10:40;5.60;;;3.80;;
45354;SDS011;31091;48.758;9.150;2023-05-20T16:13:26;5.05;;;3.17;;
45354;SDS011;31091;48.758;9.150;2023-05-20T16:16:11;5.30;;;3.45;;
45354;SDS011;31091;48.758;9.150;2023-05-20T16:18:57;6.57;;;3.58;;
45354;SDS011;31091;48.758;9.150;2023-05-20T16:21:43;4.63;;;3.33;;
45354;SDS011;31091;48.758;9.150;2023-05-20T16:24:28;4.88;;;3.50;;
45354;SDS011;31091;48.758;9.150;2023-05-20T16:27:13;12.63;;;3.60;;
45354;SDS011;31091;48.758;9.150;2023-05-20T16:29:58;6.88;;;3.70;;
45354;SDS011;31091;48.758;9.150;2023-05-20T16:32:44;7.40;;;3.75;;
45354;SDS011;31091;48.758;9.150;2023-05-20T16:35:29;6.22;;;3.92;;
45354;SDS011;31091;48.758;9.150;2023-05-20T16:38:14;6.80;;;4.32;;
45354;SDS011;31091;48.758;9.150;2023-05-20T16:41:00;5.30;;;3.42;;
45354;SDS011;31091;48.758;9.150;2023-05-20T16:43:45;6.28;;;4.13;;
45354;SDS011;31091;48.758;9.150;2023-05-20T16:46:31;4.63;;;3.50;;
45354;SDS011;31091;48.758;9.150;2023-05-20T16:49:16;6.72;;;4.43;;
45354;SDS011;31091;48.758;9.150;2023-05-20T16:52:01;6.20;;;3.67;;
45354;SDS011;31091;48.758;9.150;2023-05-20T16:54:46;7.35;;;4.18;;